Time;durP1;ratioP1;P1;durP2;ratioP2;P2;SDS_P1;SDS_P2;PMS_P1;PMS_P2;Temp;Humidity;BMP_temperature;BMP_pressure;BME280_temperature;BME280_humidity;BME280_pressure;Samples;Min_cycle;Max_cycle;Signal;HPM_P1;HPM_P2
2022/11/14 00:00:47;;;;;;;8.48;5.00;;;7.10;78.30;;;;;;5002541;28;20036;-80
2022/11/14 00:03:12;;;;;;;7.30;4.75;;;7.00;78.30;;;;;;5009725;28;20478;-80
2022/11/14 00:05:44;;;;;;;8.97;5.40;;;7.00;78.40;;;;;;5000646;28;20564;-80
2022/11/14 00:08:26;;;;;;;6.78;4.68;;;7.00;78.70;;;;;;5026210;28;20107;-80
2022/11/14 00:10:51;;;;;;;8.52;4.82;;;6.90;78.80;;;;;;5030691;28;20022;-80
2022/11/14 00:13:19;;;;;;;6.87;4.37;;;6.90;78.60;;;;;;5007140;28;20029;-80
2022/11/14 00:15:49;;;;;;;8.45;4.85;;;6.90;78.60;;;;;;5013834;28;20267;-79
2022/11/14 00:18:15;;;;;;;7.80;4.70;;;6.80;78.60;;;;;;5023744;28;20025;-80
2022/11/14 00:20:40;;;;;;;7.57;4.82;;;6.80;78.70;;;;;;5009728;28;20322;-80
2022/11/14 00:23:06;;;;;;;7.20;4.47;;;6.80;78.70;;;;;;5017454;28;20482;-80
2022/11/14 00:25:32;;;;;;;7.53;4.60;;;6.70;78.80;;;;;;5023787;28;20037;-80
2022/11/14 00:27:58;;;;;;;8.30;4.70;;;6.70;78.90;;;;;;5023977;28;20269;-80
2022/11/14 00:30:24;;;;;;;11.82;4.63;;;6.70;78.90;;;;;;5009332;28;20026;-80
2022/11/14 00:32:50;;;;;;;7.65;4.95;;;6.70;78.90;;;;;;5033983;28;20214;-80
2022/11/14 00:35:15;;;;;;;6.73;4.00;;;6.60;78.90;;;;;;5026024;28;20623;-80
2022/11/14 00:37:41;;;;;;;6.68;4.60;;;6.60;79.00;;;;;;5025324;28;20029;-79
2022/11/14 00:40:07;;;;;;;6.67;4.20;;;6.60;79.10;;;;;;5014881;28;20473;-79
2022/11/14 00:42:33;;;;;;;6.38;4.10;;;6.60;79.10;;;;;;5000557;28;20260;-79
2022/11/14 00:44:59;;;;;;;5.93;3.53;;;6.60;79.20;;;;;;5018754;28;20032;-79
2022/11/14 00:47:24;;;;;;;6.50;4.00;;;6.50;79.20;;;;;;5010185;28;20033;-79
2022/11/14 00:49:50;;;;;;;7.43;4.40;;;6.50;79.30;;;;;;5027786;28;20395;-79
2022/11/14 00:52:15;;;;;;;8.05;4.88;;;6.50;79.30;;;;;;5019103;28;20030;-79
2022/11/14 00:54:41;;;;;;;7.10;4.87;;;6.50;79.30;;;;;;5014820;28;20665;-79
2022/11/14 00:57:07;;;;;;;8.90;5.10;;;6.50;79.30;;;;;;5014435;28;20030;-79
2022/11/14 00:59:32;;;;;;;9.13;5.30;;;6.40;79.30;;;;;;5017258;28;20433;-79
2022/11/14 01:01:58;;;;;;;6.83;4.50;;;6.40;79.40;;;;;;5034097;28;20136;-79
2022/11/14 01:04:23;;;;;;;8.50;5.40;;;6.40;79.30;;;;;;5022821;28;20079;-79
2022/11/14 01:06:49;;;;;;;9.20;5.43;;;6.40;79.30;;;;;;5011536;28;20033;-79
2022/11/14 01:09:15;;;;;;;7.82;5.20;;;6.40;79.50;;;;;;5003169;28;20442;-79
2022/11/14 01:11:40;;;;;;;9.33;5.30;;;6.30;79.50;;;;;;5014827;28;20036;-79
2022/11/14 01:14:07;;;;;;;8.88;5.20;;;6.30;79.60;;;;;;5025977;28;20440;-80
2022/11/14 01:16:34;;;;;;;8.23;5.40;;;6.30;79.80;;;;;;5005553;28;20489;-79
2022/11/14 01:19:01;;;;;;;7.47;4.73;;;6.20;79.80;;;;;;5023824;28;20025;-79
2022/11/14 01:21:26;;;;;;;9.02;5.38;;;6.20;79.90;;;;;;5023303;28;20026;-79
2022/11/14 01:23:52;;;;;;;8.40;5.53;;;6.20;80.00;;;;;;5013684;28;20130;-79
2022/11/14 01:26:17;;;;;;;7.47;4.80;;;6.10;80.00;;;;;;5036923;28;20036;-79
2022/11/14 01:28:43;;;;;;;8.97;5.47;;;6.10;80.00;;;;;;5031177;28;20314;-79
2022/11/14 01:31:17;;;;;;;8.75;5.65;;;6.10;80.10;;;;;;5002776;28;20423;-79
2022/11/14 01:33:43;;;;;;;8.02;4.70;;;6.10;80.10;;;;;;5027180;28;20575;-79
2022/11/14 01:36:10;;;;;;;9.40;5.27;;;6.10;80.00;;;;;;5028340;28;20029;-79
2022/11/14 01:38:36;;;;;;;8.00;5.13;;;6.00;80.00;;;;;;5040523;28;20113;-79
2022/11/14 01:41:03;;;;;;;8.98;5.75;;;6.00;79.90;;;;;;5047183;28;20112;-79
2022/11/14 01:43:34;;;;;;;8.32;4.78;;;6.00;80.00;;;;;;5033241;28;20508;-79
2022/11/14 01:46:02;;;;;;;6.70;4.20;;;5.90;80.10;;;;;;5022169;28;20025;-79
2022/11/14 01:48:48;;;;;;;7.93;4.88;;;5.90;80.00;;;;;;5017987;28;20473;-79
2022/11/14 01:51:45;;;;;;;8.40;5.28;;;5.90;80.30;;;;;;5021796;28;20617;-79
2022/11/14 01:54:17;;;;;;;8.65;5.10;;;5.90;80.30;;;;;;5029819;28;20037;-79
2022/11/14 01:56:48;;;;;;;7.35;4.82;;;5.80;80.00;;;;;;5041148;28;20041;-79
2022/11/14 01:59:18;;;;;;;7.80;4.60;;;5.80;80.10;;;;;;5018389;28;20022;-79
2022/11/14 02:01:48;;;;;;;8.30;4.82;;;5.70;80.00;;;;;;5027460;28;20705;-79
2022/11/14 02:04:23;;;;;;;8.45;5.38;;;5.70;80.20;;;;;;5034145;28;20036;-79
2022/11/14 02:06:50;;;;;;;9.25;5.30;;;5.70;80.20;;;;;;5021119;28;20043;-79
2022/11/14 02:09:16;;;;;;;8.63;5.00;;;5.70;80.90;;;;;;5044347;28;20021;-79
2022/11/14 02:11:44;;;;;;;8.87;5.27;;;5.70;80.20;;;;;;5028777;28;20714;-79
2022/11/14 02:14:11;;;;;;;9.00;4.95;;;5.70;80.40;;;;;;5026601;28;20484;-79
2022/11/14 02:16:40;;;;;;;8.85;5.43;;;5.60;80.40;;;;;;5013189;28;20033;-79
2022/11/14 02:19:06;;;;;;;8.63;5.25;;;5.60;80.40;;;;;;5012954;28;20385;-79
2022/11/14 02:21:31;;;;;;;7.53;4.65;;;5.60;80.40;;;;;;5023537;28;20053;-79
2022/11/14 02:23:57;;;;;;;9.57;5.07;;;5.60;80.40;;;;;;5039868;28;20080;-79
2022/11/14 02:26:23;;;;;;;9.50;5.50;;;5.60;80.40;;;;;;5016123;28;20039;-79
2022/11/14 02:28:48;;;;;;;8.20;5.22;;;5.50;80.30;;;;;;5014889;28;20513;-79
2022/11/14 02:31:14;;;;;;;8.48;5.32;;;5.50;80.40;;;;;;5022355;28;20029;-79
2022/11/14 02:33:41;;;;;;;7.97;4.97;;;5.50;80.40;;;;;;5003860;28;20412;-79
2022/11/14 02:36:07;;;;;;;7.75;5.03;;;5.50;80.40;;;;;;5026431;28;20117;-79
2022/11/14 02:38:33;;;;;;;8.02;4.78;;;5.50;80.40;;;;;;5011800;28;20025;-79
2022/11/14 02:40:59;;;;;;;8.13;5.00;;;5.40;80.40;;;;;;5032147;28;20099;-79
2022/11/14 02:43:25;;;;;;;8.63;4.90;;;5.40;80.40;;;;;;5021451;28;20072;-79
2022/11/14 02:45:51;;;;;;;7.93;4.87;;;5.40;80.50;;;;;;5031781;28;20033;-79
2022/11/14 02:48:17;;;;;;;8.93;5.15;;;5.30;80.50;;;;;;5028475;28;20021;-79
2022/11/14 02:50:43;;;;;;;8.02;4.88;;;5.30;80.50;;;;;;5005726;28;20807;-79
2022/11/14 02:53:09;;;;;;;7.77;4.90;;;5.30;80.50;;;;;;5018519;28;20460;-79
2022/11/14 02:55:34;;;;;;;8.23;4.78;;;5.30;80.60;;;;;;5014491;28;20387;-79
2022/11/14 02:58:00;;;;;;;8.20;5.00;;;5.30;80.70;;;;;;5021328;28;20059;-79
2022/11/14 03:00:26;;;;;;;7.95;4.70;;;5.20;80.50;;;;;;5013830;28;20021;-79
2022/11/14 03:02:52;;;;;;;7.35;4.82;;;5.30;80.70;;;;;;5014570;28;20345;-79
2022/11/14 03:05:18;;;;;;;8.40;4.90;;;5.30;80.60;;;;;;5018040;28;20315;-79
2022/11/14 03:07:44;;;;;;;9.43;5.13;;;5.20;80.60;;;;;;5021399;28;20025;-79
2022/11/14 03:10:10;;;;;;;8.65;5.13;;;5.20;80.50;;;;;;5023733;28;20131;-79
2022/11/14 03:12:36;;;;;;;9.33;5.40;;;5.20;80.70;;;;;;5018656;28;20276;-79
2022/11/14 03:15:04;;;;;;;9.35;5.75;;;5.10;80.60;;;;;;5015919;28;20396;-79
2022/11/14 03:17:33;;;;;;;8.55;5.35;;;5.10;80.70;;;;;;5000634;28;20071;-79
2022/11/14 03:19:59;;;;;;;9.10;5.03;;;5.10;80.90;;;;;;5026074;28;20060;-79
2022/11/14 03:22:25;;;;;;;8.80;5.00;;;5.10;80.90;;;;;;5003908;28;20021;-79
2022/11/14 03:24:51;;;;;;;7.55;4.95;;;5.00;80.80;;;;;;5021240;28;20025;-79
2022/11/14 03:27:17;;;;;;;8.38;4.80;;;5.00;80.80;;;;;;5002856;28;20039;-79
2022/11/14 03:29:42;;;;;;;7.10;4.73;;;5.00;80.90;;;;;;5011422;28;20013;-79
2022/11/14 03:32:08;;;;;;;8.73;4.90;;;5.00;81.00;;;;;;5029621;28;20021;-79
2022/11/14 03:34:34;;;;;;;7.80;4.70;;;5.00;81.10;;;;;;5020470;28;20383;-80
2022/11/14 03:37:00;;;;;;;7.23;4.43;;;4.90;81.10;;;;;;5024369;28;20034;-79
2022/11/14 03:39:26;;;;;;;7.30;4.70;;;4.90;81.10;;;;;;5029429;28;20124;-79
2022/11/14 03:41:51;;;;;;;7.32;4.55;;;4.90;81.40;;;;;;5036047;28;20032;-79
2022/11/14 03:44:17;;;;;;;7.77;4.50;;;4.90;81.20;;;;;;5008152;28;20021;-80
2022/11/14 03:46:43;;;;;;;7.97;4.72;;;4.90;81.20;;;;;;5021851;28;20033;-80
2022/11/14 03:49:08;;;;;;;7.67;4.30;;;4.90;81.20;;;;;;5020098;28;20040;-79
2022/11/14 03:51:34;;;;;;;7.97;4.60;;;4.90;81.30;;;;;;5026171;28;20850;-79
2022/11/14 03:54:00;;;;;;;7.53;4.55;;;4.90;81.30;;;;;;5027886;28;20095;-79
2022/11/14 03:56:25;;;;;;;7.47;4.47;;;4.80;81.20;;;;;;5005298;28;20338;-80
2022/11/14 03:58:51;;;;;;;7.07;4.37;;;4.90;81.30;;;;;;5017021;28;20018;-79
2022/11/14 04:01:17;;;;;;;6.33;4.23;;;4.80;81.30;;;;;;5016590;28;20717;-79
2022/11/14 04:03:43;;;;;;;8.13;4.33;;;4.80;81.40;;;;;;5023441;28;20291;-80
2022/11/14 04:06:09;;;;;;;8.60;4.70;;;4.80;81.40;;;;;;5026526;28;20033;-80
2022/11/14 04:08:34;;;;;;;7.50;4.50;;;4.80;81.40;;;;;;5002785;28;20032;-79
2022/11/14 04:11:00;;;;;;;8.00;5.32;;;4.80;81.40;;;;;;5003854;28;20051;-80
2022/11/14 04:13:26;;;;;;;7.50;4.60;;;4.80;81.40;;;;;;5043979;28;20033;-79
2022/11/14 04:15:58;;;;;;;8.32;4.82;;;4.80;81.40;;;;;;5047461;28;20095;-80
2022/11/14 04:18:25;;;;;;;8.18;4.65;;;4.70;81.50;;;;;;5021427;28;20036;-80
2022/11/14 04:20:51;;;;;;;8.63;4.80;;;4.70;81.40;;;;;;5015437;28;20036;-80
2022/11/14 04:23:17;;;;;;;7.35;4.45;;;4.70;81.40;;;;;;4999172;28;20788;-80
2022/11/14 04:25:44;;;;;;;7.40;4.38;;;4.70;81.50;;;;;;5001366;28;20090;-79
2022/11/14 04:28:10;;;;;;;8.27;4.57;;;4.70;81.60;;;;;;5025618;28;20221;-79
2022/11/14 04:30:36;;;;;;;8.13;4.72;;;4.70;81.70;;;;;;5049957;28;20485;-80
2022/11/14 04:33:02;;;;;;;7.70;4.40;;;4.70;81.70;;;;;;5018428;28;20040;-80
2022/11/14 04:35:28;;;;;;;8.77;4.47;;;4.70;81.70;;;;;;5026102;28;20036;-80
2022/11/14 04:37:53;;;;;;;9.03;4.70;;;4.60;81.60;;;;;;4999400;28;20508;-80
2022/11/14 04:40:19;;;;;;;9.27;5.00;;;4.60;81.60;;;;;;5020324;28;20032;-80
2022/11/14 04:42:44;;;;;;;7.93;4.40;;;4.60;81.70;;;;;;5023544;28;20023;-80
2022/11/14 04:45:10;;;;;;;7.67;4.90;;;4.60;81.80;;;;;;5012442;28;20375;-80
2022/11/14 04:47:36;;;;;;;7.43;4.50;;;4.60;81.70;;;;;;5039712;28;20288;-80
2022/11/14 04:50:02;;;;;;;8.63;4.60;;;4.50;81.60;;;;;;5015681;28;20116;-80
2022/11/14 04:52:28;;;;;;;7.88;4.50;;;4.60;81.80;;;;;;5029151;28;20466;-80
2022/11/14 04:54:53;;;;;;;7.93;4.43;;;4.50;81.80;;;;;;4977052;28;20047;-80
2022/11/14 04:57:19;;;;;;;7.77;4.53;;;4.50;81.80;;;;;;5023062;28;20260;-80
2022/11/14 04:59:45;;;;;;;8.00;4.60;;;4.50;81.80;;;;;;5019815;28;20482;-80
2022/11/14 05:02:10;;;;;;;10.65;4.97;;;4.50;81.80;;;;;;5017915;28;20116;-79
2022/11/14 05:04:36;;;;;;;6.83;4.43;;;4.50;81.90;;;;;;5006482;28;20385;-80
2022/11/14 05:07:02;;;;;;;8.68;4.93;;;4.50;81.90;;;;;;5002137;28;20032;-79
2022/11/14 05:09:27;;;;;;;6.37;4.17;;;4.40;81.80;;;;;;5003415;28;20408;-80
2022/11/14 05:11:53;;;;;;;8.07;4.50;;;4.40;81.90;;;;;;5002725;28;20302;-80
2022/11/14 05:14:19;;;;;;;7.73;4.50;;;4.40;82.00;;;;;;5039131;28;20037;-80
2022/11/14 05:16:44;;;;;;;8.02;4.97;;;4.40;82.00;;;;;;5016758;28;20104;-80
2022/11/14 05:19:10;;;;;;;8.33;4.67;;;4.30;82.00;;;;;;5028836;28;20516;-79
2022/11/14 05:21:35;;;;;;;8.88;4.88;;;4.30;82.00;;;;;;5007726;28;20053;-80
2022/11/14 05:24:01;;;;;;;8.03;4.50;;;4.30;82.10;;;;;;5030033;28;20029;-80
2022/11/14 05:26:27;;;;;;;7.43;4.43;;;4.30;82.20;;;;;;4983275;28;20031;-80
2022/11/14 05:28:52;;;;;;;7.72;4.72;;;4.30;82.20;;;;;;5006572;28;20392;-80
2022/11/14 05:31:18;;;;;;;7.37;4.40;;;4.30;82.20;;;;;;5012668;28;20056;-79
2022/11/14 05:33:45;;;;;;;7.63;4.28;;;4.30;82.20;;;;;;5054257;28;20021;-80
2022/11/14 05:36:13;;;;;;;8.25;4.68;;;4.30;82.20;;;;;;5018126;28;20331;-80
2022/11/14 05:38:39;;;;;;;6.10;4.00;;;4.30;82.30;;;;;;5027920;28;20317;-80
2022/11/14 05:41:13;;;;;;;6.78;4.20;;;4.30;82.30;;;;;;5002176;28;20371;-80
2022/11/14 05:43:39;;;;;;;6.50;4.10;;;4.30;82.50;;;;;;5012031;28;20114;-80
2022/11/14 05:46:08;;;;;;;7.28;4.53;;;4.20;82.20;;;;;;5037792;28;20301;-80
2022/11/14 05:48:34;;;;;;;7.63;4.10;;;4.20;82.20;;;;;;5019971;28;20524;-79
2022/11/14 05:51:01;;;;;;;6.47;4.07;;;4.20;82.20;;;;;;5017004;28;20522;-80
2022/11/14 05:53:28;;;;;;;8.45;4.30;;;4.20;82.30;;;;;;5030779;28;20044;-80
2022/11/14 05:55:54;;;;;;;6.72;4.25;;;4.20;82.30;;;;;;5025085;28;20041;-80
2022/11/14 05:58:21;;;;;;;7.68;4.20;;;4.20;82.30;;;;;;5013994;28;20029;-80
2022/11/14 06:00:47;;;;;;;6.33;3.97;;;4.20;82.30;;;;;;5028961;28;20035;-80
2022/11/14 06:03:13;;;;;;;8.23;4.65;;;4.10;82.20;;;;;;4996313;28;20041;-80
2022/11/14 06:05:39;;;;;;;7.22;4.28;;;4.10;82.30;;;;;;5022949;28;20413;-80
2022/11/14 06:08:05;;;;;;;7.43;4.38;;;4.10;82.30;;;;;;4984372;28;20162;-80
2022/11/14 06:10:33;;;;;;;8.23;4.70;;;4.10;82.30;;;;;;5011335;28;20029;-79
2022/11/14 06:12:58;;;;;;;7.82;4.20;;;4.10;82.30;;;;;;4987704;28;20721;-80
2022/11/14 06:15:24;;;;;;;6.77;4.00;;;4.10;82.30;;;;;;5026287;28;20028;-79
2022/11/14 06:17:54;;;;;;;7.25;4.47;;;4.00;82.20;;;;;;5039617;28;20053;-80
2022/11/14 06:20:20;;;;;;;7.70;4.25;;;4.00;82.30;;;;;;5024747;28;20067;-79
2022/11/14 06:22:46;;;;;;;8.53;4.50;;;4.00;82.30;;;;;;5003745;28;20021;-79
2022/11/14 06:25:12;;;;;;;8.48;4.50;;;4.00;82.30;;;;;;5047770;28;20021;-80
2022/11/14 06:27:37;;;;;;;6.82;4.20;;;4.00;82.40;;;;;;5025943;28;20025;-79
2022/11/14 06:30:03;;;;;;;5.80;4.00;;;4.00;82.50;;;;;;5005495;28;20410;-79
2022/11/14 06:32:29;;;;;;;7.80;4.38;;;3.90;82.40;;;;;;5017931;28;20277;-79
2022/11/14 06:34:54;;;;;;;6.93;4.53;;;3.90;82.50;;;;;;4995994;28;20037;-80
2022/11/14 06:37:20;;;;;;;8.43;4.75;;;4.00;82.50;;;;;;5045021;28;20401;-80
2022/11/14 06:39:46;;;;;;;8.13;4.53;;;3.90;82.60;;;;;;4994953;28;20144;-79
2022/11/14 06:42:11;;;;;;;7.20;4.40;;;3.90;82.60;;;;;;5008093;28;20025;-80
2022/11/14 06:44:37;;;;;;;7.10;4.00;;;3.90;82.60;;;;;;5001028;28;20615;-80
2022/11/14 06:47:03;;;;;;;7.10;4.40;;;3.80;82.60;;;;;;5048682;28;20028;-82
2022/11/14 06:49:28;;;;;;;6.45;4.00;;;3.90;82.70;;;;;;5012444;28;20877;-82
2022/11/14 06:51:54;;;;;;;7.83;4.20;;;3.80;82.70;;;;;;5026045;28;20037;-82
2022/11/14 06:54:19;;;;;;;8.05;3.88;;;3.90;82.80;;;;;;5020541;28;20519;-81
2022/11/14 06:56:45;;;;;;;7.00;4.50;;;3.90;82.80;;;;;;5014813;28;21479;-81
2022/11/14 06:59:11;;;;;;;6.63;4.20;;;3.90;82.80;;;;;;5022347;28;20393;-81
2022/11/14 07:01:37;;;;;;;7.60;4.75;;;3.80;82.80;;;;;;5026711;28;20269;-82
2022/11/14 07:04:03;;;;;;;7.43;4.37;;;3.90;82.90;;;;;;5015203;28;20103;-82
2022/11/14 07:06:29;;;;;;;7.70;4.38;;;3.90;82.90;;;;;;5015006;28;20146;-82
2022/11/14 07:08:56;;;;;;;7.63;4.40;;;3.90;83.00;;;;;;5012369;28;20094;-82
2022/11/14 07:11:26;;;;;;;7.45;3.97;;;3.80;83.00;;;;;;5032749;28;20328;-82
2022/11/14 07:13:57;;;;;;;7.00;4.00;;;3.90;83.10;;;;;;5040099;28;20102;-82
2022/11/14 07:16:34;;;;;;;7.55;3.92;;;3.90;83.30;;;;;;5018108;28;20422;-82
2022/11/14 07:19:01;;;;;;;8.88;4.38;;;3.90;83.30;;;;;;5028396;28;20497;-82
2022/11/14 07:21:28;;;;;;;5.78;3.80;;;3.90;83.30;;;;;;5002792;28;20029;-82
2022/11/14 07:23:54;;;;;;;7.22;3.97;;;3.90;83.30;;;;;;5005575;28;20078;-82
2022/11/14 07:26:20;;;;;;;6.47;4.00;;;3.90;83.30;;;;;;5015165;28;20031;-82
2022/11/14 07:28:46;;;;;;;5.25;3.63;;;3.90;83.40;;;;;;5028037;28;20452;-82
2022/11/14 07:31:14;;;;;;;7.20;4.10;;;3.90;83.40;;;;;;5019097;28;20517;-81
2022/11/14 07:33:40;;;;;;;7.23;4.20;;;3.90;83.80;;;;;;5003143;28;20043;-82
2022/11/14 07:36:07;;;;;;;6.28;4.00;;;4.00;84.20;;;;;;5012659;28;20834;-82
2022/11/14 07:38:34;;;;;;;7.35;4.45;;;4.10;84.40;;;;;;5044515;28;20033;-82
2022/11/14 07:41:02;;;;;;;6.68;3.95;;;4.10;84.30;;;;;;4994814;28;20417;-82
2022/11/14 07:43:28;;;;;;;5.93;3.63;;;4.20;84.20;;;;;;5043521;28;20036;-81
2022/11/14 07:46:02;;;;;;;7.63;4.50;;;4.20;84.10;;;;;;5005485;28;20031;-82
2022/11/14 07:48:28;;;;;;;7.25;4.30;;;4.30;84.10;;;;;;4991503;28;20264;-82
2022/11/14 07:50:59;;;;;;;7.53;4.20;;;4.30;84.00;;;;;;5012011;28;20033;-82
2022/11/14 07:53:25;;;;;;;6.85;4.32;;;4.40;84.10;;;;;;4997221;28;20085;-82
2022/11/14 07:55:50;;;;;;;7.07;4.40;;;4.40;84.10;;;;;;5020636;28;20029;-82
2022/11/14 07:58:16;;;;;;;7.97;4.70;;;4.40;84.00;;;;;;5025921;28;20021;-82
2022/11/14 08:00:41;;;;;;;7.00;4.33;;;4.40;84.00;;;;;;5021806;28;20035;-82
2022/11/14 08:03:08;;;;;;;7.47;4.70;;;4.50;84.10;;;;;;5009587;28;20171;-82
2022/11/14 08:05:34;;;;;;;8.82;3.92;;;4.50;84.20;;;;;;5027402;28;20087;-82
2022/11/14 08:07:59;;;;;;;6.90;4.30;;;4.50;84.30;;;;;;5014046;28;20029;-82
2022/11/14 08:10:25;;;;;;;9.02;4.38;;;4.60;84.50;;;;;;4995385;28;20025;-82
2022/11/14 08:13:02;;;;;;;7.67;4.37;;;4.60;84.70;;;;;;5037711;28;20525;-82
2022/11/14 08:15:28;;;;;;;8.85;5.13;;;4.70;84.90;;;;;;5007896;28;20068;-82
2022/11/14 08:18:00;;;;;;;7.93;4.60;;;4.70;84.80;;;;;;5030683;28;20357;-82
2022/11/14 08:20:26;;;;;;;8.55;4.75;;;4.70;85.00;;;;;;4979282;28;20584;-82
2022/11/14 08:23:08;;;;;;;9.30;5.40;;;4.80;84.90;;;;;;5008231;28;20338;-81
2022/11/14 08:25:34;;;;;;;7.32;4.78;;;4.80;85.20;;;;;;5016299;28;20035;-82
2022/11/14 08:27:59;;;;;;;8.35;4.90;;;4.90;85.10;;;;;;5024403;28;20025;-82
2022/11/14 08:30:25;;;;;;;8.43;4.43;;;4.90;85.20;;;;;;5024810;28;20076;-81
2022/11/14 08:32:51;;;;;;;8.98;5.00;;;5.00;85.30;;;;;;5025136;28;20575;-82
2022/11/14 08:35:16;;;;;;;7.73;4.57;;;5.00;85.40;;;;;;5014619;28;20036;-81
2022/11/14 08:37:42;;;;;;;9.10;5.28;;;5.10;85.50;;;;;;5024102;28;20025;-81
2022/11/14 08:40:08;;;;;;;8.43;4.57;;;5.20;85.60;;;;;;5014427;28;20112;-80
2022/11/14 08:42:34;;;;;;;9.90;4.53;;;5.20;85.80;;;;;;5000772;28;20029;-80
2022/11/14 08:44:59;;;;;;;7.30;4.47;;;5.30;85.90;;;;;;5009364;28;20385;-80
2022/11/14 08:47:25;;;;;;;7.60;4.38;;;5.30;85.90;;;;;;5017013;28;20025;-80
2022/11/14 08:49:50;;;;;;;6.63;4.30;;;5.40;86.20;;;;;;5013978;28;20527;-80
2022/11/14 08:52:16;;;;;;;7.83;4.70;;;5.50;86.40;;;;;;5035571;28;20021;-80
2022/11/14 08:54:42;;;;;;;7.05;4.22;;;5.60;86.60;;;;;;5020699;28;20376;-80
2022/11/14 08:57:07;;;;;;;7.93;4.60;;;5.70;86.80;;;;;;5015437;28;20045;-80
2022/11/14 08:59:33;;;;;;;7.82;4.28;;;5.80;87.40;;;;;;5051357;28;20029;-80
2022/11/14 09:01:59;;;;;;;7.30;4.30;;;5.90;87.20;;;;;;5047619;28;20068;-80
2022/11/14 09:04:24;;;;;;;7.78;4.60;;;6.00;87.20;;;;;;5022623;28;20028;-80
2022/11/14 09:06:51;;;;;;;5.70;3.70;;;6.00;87.30;;;;;;5011304;28;20148;-80
2022/11/14 09:09:16;;;;;;;8.13;4.30;;;6.10;87.70;;;;;;5021830;28;20033;-80
2022/11/14 09:11:42;;;;;;;6.67;4.20;;;6.30;88.30;;;;;;5045820;28;20037;-80
2022/11/14 09:14:08;;;;;;;6.40;3.90;;;6.50;89.20;;;;;;5033704;28;20420;-80
2022/11/14 09:16:34;;;;;;;5.27;3.53;;;6.60;90.00;;;;;;5040806;28;20026;-80
2022/11/14 09:18:59;;;;;;;5.60;3.90;;;6.90;90.60;;;;;;5028378;28;20176;-80
2022/11/14 09:21:25;;;;;;;6.28;4.18;;;7.20;91.30;;;;;;5028885;28;20425;-79
2022/11/14 09:23:51;;;;;;;6.00;4.03;;;7.60;92.30;;;;;;5015898;28;20421;-79
2022/11/14 09:26:17;;;;;;;6.57;3.90;;;8.10;93.20;;;;;;5045891;28;20486;-79
2022/11/14 09:28:43;;;;;;;7.32;4.47;;;8.70;94.20;;;;;;4993295;28;20029;-79
2022/11/14 09:31:11;;;;;;;6.07;4.10;;;9.30;95.20;;;;;;5029288;28;20060;-79
2022/11/14 09:33:36;;;;;;;7.22;4.45;;;10.00;96.10;;;;;;5025563;28;20025;-79
2022/11/14 09:36:09;;;;;;;6.20;4.43;;;10.80;96.90;;;;;;5015916;28;20402;-79
2022/11/14 09:38:35;;;;;;;8.02;4.80;;;11.50;96.90;;;;;;5008056;28;20382;-79
2022/11/14 09:41:31;;;;;;;7.22;4.47;;;12.30;97.20;;;;;;5031014;28;20490;-79
2022/11/14 09:44:10;;;;;;;6.75;4.32;;;13.10;95.40;;;;;;5021827;28;20052;-79
2022/11/14 09:46:52;;;;;;;7.00;4.20;;;13.90;95.30;;;;;;5025648;28;20025;-79
2022/11/14 09:49:41;;;;;;;6.95;4.43;;;14.60;94.50;;;;;;5026535;28;20084;-79
2022/11/14 09:52:46;;;;;;;6.20;4.13;;;15.30;93.90;;;;;;5046147;28;20544;-79
2022/11/14 09:55:20;;;;;;;7.03;4.20;;;16.00;92.40;;;;;;5027471;28;20034;-80
2022/11/14 09:57:46;;;;;;;5.35;3.72;;;16.60;93.20;;;;;;5015990;28;20502;-80
2022/11/14 10:00:20;;;;;;;5.67;3.63;;;17.00;93.20;;;;;;5019214;28;20564;-80
2022/11/14 10:02:54;;;;;;;5.60;4.05;;;17.40;91.70;;;;;;5031270;28;20022;-80
2022/11/14 10:05:57;;;;;;;4.93;3.67;;;17.80;90.50;;;;;;5030109;28;20229;-80
2022/11/14 10:08:26;;;;;;;5.00;3.80;;;18.10;88.50;;;;;;5057117;28;20025;-80
2022/11/14 10:11:05;;;;;;;5.10;3.67;;;18.50;90.60;;;;;;5006617;28;20305;-80
2022/11/14 10:14:05;;;;;;;6.30;4.20;;;18.70;89.90;;;;;;5023359;28;20037;-81
2022/11/14 10:17:10;;;;;;;5.53;3.75;;;19.00;87.90;;;;;;5012439;28;20033;-81
2022/11/14 10:19:48;;;;;;;6.25;3.97;;;19.30;86.40;;;;;;5024264;28;20044;-80
2022/11/14 10:22:37;;;;;;;5.15;3.90;;;19.60;89.30;;;;;;5033421;28;20493;-80
2022/11/14 10:25:43;;;;;;;5.07;3.67;;;19.80;84.90;;;;;;5035562;28;20733;-80
2022/11/14 10:28:28;;;;;;;5.57;3.95;;;20.10;84.60;;;;;;5031237;28;20045;-81
2022/11/14 10:31:27;;;;;;;5.60;3.90;;;20.40;84.60;;;;;;5013015;28;20821;-81
2022/11/14 10:34:07;;;;;;;4.60;3.72;;;20.50;82.10;;;;;;5027184;28;20021;-81
2022/11/14 10:37:06;;;;;;;5.15;3.95;;;20.60;82.70;;;;;;5015289;28;20229;-80
2022/11/14 10:39:48;;;;;;;5.60;4.10;;;20.70;83.20;;;;;;5035264;28;20060;-80
2022/11/14 10:42:23;;;;;;;5.00;3.65;;;20.70;82.20;;;;;;5050475;28;20033;-80
2022/11/14 10:45:01;;;;;;;5.30;3.90;;;20.80;83.70;;;;;;5015972;28;20330;-80
2022/11/14 10:47:34;;;;;;;4.75;3.97;;;20.80;83.30;;;;;;5026647;28;20032;-80
2022/11/14 10:50:13;;;;;;;5.75;4.13;;;20.90;84.00;;;;;;5025473;28;20044;-80
2022/11/14 10:52:42;;;;;;;5.90;3.87;;;21.00;82.90;;;;;;5014385;28;20517;-81
2022/11/14 10:55:20;;;;;;;5.60;3.90;;;21.00;83.60;;;;;;5051126;28;20179;-80
2022/11/14 10:57:47;;;;;;;5.00;3.88;;;21.10;80.40;;;;;;5030795;28;20300;-79
2022/11/14 11:00:16;;;;;;;5.50;4.20;;;21.20;84.40;;;;;;5020700;28;20116;-80
2022/11/14 11:02:52;;;;;;;5.57;4.10;;;21.40;83.80;;;;;;5015112;28;20205;-79
2022/11/14 11:05:21;;;;;;;4.87;3.70;;;21.50;82.30;;;;;;5034854;28;20424;-80
2022/11/14 11:13:53;;;;;;;5.22;3.95;;;22.20;83.40;;;;;;5032206;28;20064;-79
2022/11/14 11:16:21;;;;;;;7.57;4.55;;;22.40;78.40;;;;;;5042784;28;20025;-79
2022/11/14 11:18:47;;;;;;;5.93;4.23;;;22.60;82.50;;;;;;5017372;28;20025;-79
2022/11/14 11:21:16;;;;;;;5.07;4.18;;;22.70;81.80;;;;;;5034518;28;20030;-80
2022/11/14 11:23:54;;;;;;;5.05;4.15;;;22.90;80.50;;;;;;5026745;28;20018;-79
2022/11/14 11:26:29;;;;;;;6.23;4.13;;;23.10;76.30;;;;;;5020385;28;20029;-80
2022/11/14 11:29:08;;;;;;;5.60;4.38;;;23.20;75.10;;;;;;5033755;28;20469;-80
2022/11/14 11:31:57;;;;;;;5.78;4.65;;;23.20;73.60;;;;;;5005866;28;20216;-79
2022/11/14 11:34:26;;;;;;;4.85;4.00;;;23.20;72.20;;;;;;4991221;28;20116;-79
2022/11/14 11:37:02;;;;;;;5.97;4.15;;;23.20;76.00;;;;;;5037566;28;20435;-79
2022/11/14 11:39:36;;;;;;;6.10;4.40;;;23.20;74.10;;;;;;5030033;28;20087;-80
2022/11/14 11:42:07;;;;;;;4.60;3.75;;;23.30;73.30;;;;;;5012636;28;21494;-79
2022/11/14 11:44:41;;;;;;;5.78;4.15;;;23.30;74.10;;;;;;5042574;28;20013;-80
2022/11/14 11:47:15;;;;;;;5.82;4.03;;;23.30;71.50;;;;;;5016776;28;20044;-81
2022/11/14 11:49:46;;;;;;;5.32;3.78;;;23.20;68.90;;;;;;5034135;28;20024;-80
2022/11/14 11:52:47;;;;;;;6.33;3.90;;;23.20;69.80;;;;;;5017297;28;20527;-80
2022/11/14 11:55:32;;;;;;;4.93;3.58;;;23.10;67.80;;;;;;4993157;28;20061;-81
2022/11/14 11:58:25;;;;;;;4.93;3.63;;;23.10;69.50;;;;;;4986000;28;20123;-79
2022/11/14 12:00:55;;;;;;;6.07;4.07;;;23.10;68.40;;;;;;4983918;28;20408;-81
2022/11/14 12:03:23;;;;;;;4.90;3.67;;;23.10;71.70;;;;;;5012328;28;20109;-79
2022/11/14 12:05:48;;;;;;;5.40;3.60;;;23.10;71.60;;;;;;4986992;28;20034;-79
2022/11/14 12:08:25;;;;;;;5.25;3.58;;;23.10;71.70;;;;;;5008602;28;20067;-80
2022/11/14 12:10:52;;;;;;;5.63;3.88;;;23.10;69.20;;;;;;4997461;28;20030;-80
2022/11/14 12:13:49;;;;;;;5.17;3.63;;;23.20;71.20;;;;;;4989584;28;20037;-79
2022/11/14 12:17:00;;;;;;;5.20;3.95;;;23.20;67.40;;;;;;4994651;28;20053;-80
2022/11/14 12:19:44;;;;;;;5.15;3.58;;;23.30;68.40;;;;;;4991145;28;20041;-80
2022/11/14 12:22:29;;;;;;;4.75;3.97;;;23.40;67.40;;;;;;5033470;28;20034;-80
2022/11/14 12:25:23;;;;;;;4.90;3.85;;;23.50;70.50;;;;;;5010961;28;20425;-80
2022/11/14 12:28:01;;;;;;;4.80;3.50;;;23.50;66.20;;;;;;4999320;28;20029;-79
2022/11/14 12:30:28;;;;;;;6.07;4.15;;;23.50;66.90;;;;;;5026041;28;20064;-80
2022/11/14 12:33:00;;;;;;;5.28;3.78;;;23.40;68.00;;;;;;5016360;28;20029;-79
2022/11/14 12:35:33;;;;;;;5.30;3.95;;;23.40;66.80;;;;;;5021355;28;20128;-80
2022/11/14 12:38:03;;;;;;;5.40;4.18;;;23.40;65.80;;;;;;5009758;28;21121;-79
2022/11/14 12:40:34;;;;;;;5.80;3.90;;;23.40;65.80;;;;;;5029213;28;20408;-81
2022/11/14 12:43:01;;;;;;;6.05;4.10;;;23.30;66.90;;;;;;5019486;28;20608;-80
2022/11/14 12:45:39;;;;;;;6.10;4.28;;;23.20;66.40;;;;;;4997620;28;20026;-79
2022/11/14 12:48:22;;;;;;;5.93;4.50;;;23.20;63.50;;;;;;4972841;28;20034;-80
2022/11/14 12:50:48;;;;;;;8.07;4.97;;;23.10;63.10;;;;;;5026009;28;20025;-79
2022/11/14 12:53:34;;;;;;;8.17;5.50;;;22.90;65.10;;;;;;5022196;28;20084;-80
2022/11/14 12:56:12;;;;;;;7.57;5.30;;;22.80;62.00;;;;;;5033727;28;20080;-80
2022/11/14 12:59:02;;;;;;;7.63;5.60;;;22.70;62.70;;;;;;5019333;28;20048;-80
2022/11/14 13:01:43;;;;;;;6.13;4.75;;;22.50;61.30;;;;;;5023383;28;20071;-80
2022/11/14 13:04:27;;;;;;;6.68;5.07;;;22.20;63.90;;;;;;5035987;28;20137;-81
2022/11/14 13:07:21;;;;;;;7.77;5.50;;;22.00;63.20;;;;;;5021809;28;20028;-79
2022/11/14 13:10:13;;;;;;;6.88;5.00;;;21.70;59.60;;;;;;5022892;28;20017;-80
2022/11/14 13:21:46;;;;;;;6.90;4.53;;;20.90;63.20;;;;;;5064354;28;20496;-80
2022/11/14 13:24:17;;;;;;;6.55;4.80;;;20.80;62.00;;;;;;5028511;28;20107;-80